ZKJEE NZNP-NZWN
Flight info
| Callsign | ZKJEE |
|---|---|
| Flight time | 0h 58m |
| Altitude | 10000 |
| Route | DAPNO Y738 TPAPA |
| Aircraft | DHC6/L-SDFGR/C |
Departure
| Time | 2026-05-05 01:54 |
|---|---|
| Airport | New Plymouth Airport (NZNP) |
Arrival
| Time | 2026-05-05 02:53 |
|---|---|
| Airport | Wellington International Airport (NZWN) |
| Time | Latitude | Longitude | Altitude | Speed | Heading |
|---|---|---|---|---|---|
| 2026-05-05 01:48 | -39.00576 | 174.18355 | 106 ft | 0 kts | 246° |
| 2026-05-05 01:54 | -39.00591 | 174.18311 | 106 ft | 29 kts | 246° |
| 2026-05-05 01:54 | -39.00794 | 174.17728 | 107 ft | 106 kts | 246° |
| 2026-05-05 01:54 | -39.01073 | 174.16923 | 647 ft | 84 kts | 246° |
| 2026-05-05 01:54 | -39.01299 | 174.16178 | 986 ft | 94 kts | 249° |
| 2026-05-05 01:55 | -39.01596 | 174.15413 | 1373 ft | 97 kts | 248° |
| 2026-05-05 01:55 | -39.01903 | 174.14610 | 1729 ft | 102 kts | 245° |
| 2026-05-05 01:55 | -39.02210 | 174.13771 | 2096 ft | 105 kts | 243° |
| 2026-05-05 01:55 | -39.02525 | 174.12897 | 2479 ft | 106 kts | 240° |
| 2026-05-05 01:56 | -39.02726 | 174.12322 | 2699 ft | 110 kts | 249° |
| 2026-05-05 01:56 | -39.03148 | 174.11087 | 3170 ft | 114 kts | 243° |
| 2026-05-05 01:56 | -39.03460 | 174.10153 | 3529 ft | 116 kts | 242° |
| 2026-05-05 01:56 | -39.03780 | 174.09192 | 3893 ft | 116 kts | 241° |
| 2026-05-05 01:57 | -39.04103 | 174.08242 | 4252 ft | 115 kts | 237° |
| 2026-05-05 01:57 | -39.04687 | 174.07684 | 4567 ft | 108 kts | 179° |
| 2026-05-05 01:57 | -39.05349 | 174.08083 | 4953 ft | 109 kts | 142° |
| 2026-05-05 01:57 | -39.05918 | 174.08765 | 5317 ft | 115 kts | 140° |
| 2026-05-05 01:58 | -39.06331 | 174.09276 | 5481 ft | 128 kts | 130° |
| 2026-05-05 01:58 | -39.06981 | 174.10085 | 5845 ft | 133 kts | 130° |
| 2026-05-05 01:58 | -39.07660 | 174.10934 | 6211 ft | 137 kts | 130° |
| 2026-05-05 01:58 | -39.08353 | 174.11799 | 6570 ft | 141 kts | 131° |
| 2026-05-05 01:59 | -39.09075 | 174.12681 | 6929 ft | 143 kts | 131° |
| 2026-05-05 01:59 | -39.09797 | 174.13560 | 7280 ft | 146 kts | 131° |
| 2026-05-05 01:59 | -39.10543 | 174.14481 | 7639 ft | 147 kts | 131° |
| 2026-05-05 01:59 | -39.11281 | 174.15388 | 7990 ft | 148 kts | 131° |
| 2026-05-05 02:00 | -39.12031 | 174.16306 | 8342 ft | 149 kts | 131° |
| 2026-05-05 02:00 | -39.12782 | 174.17238 | 8694 ft | 150 kts | 131° |
| 2026-05-05 02:00 | -39.13528 | 174.18154 | 9040 ft | 150 kts | 131° |
| 2026-05-05 02:00 | -39.14288 | 174.19092 | 9393 ft | 150 kts | 131° |
| 2026-05-05 02:01 | -39.15042 | 174.20017 | 9740 ft | 150 kts | 131° |
| 2026-05-05 02:01 | -39.15903 | 174.20855 | 9921 ft | 166 kts | 154° |
| 2026-05-05 02:01 | -39.17068 | 174.21178 | 10008 ft | 178 kts | 170° |
| 2026-05-05 02:01 | -39.18330 | 174.21358 | 10008 ft | 187 kts | 172° |
| 2026-05-05 02:02 | -39.19640 | 174.21525 | 10005 ft | 192 kts | 173° |
| 2026-05-05 02:02 | -39.20985 | 174.21698 | 10003 ft | 196 kts | 173° |
| 2026-05-05 02:02 | -39.22341 | 174.21876 | 10002 ft | 198 kts | 173° |
| 2026-05-05 02:02 | -39.23702 | 174.22055 | 10001 ft | 199 kts | 173° |
| 2026-05-05 02:03 | -39.25114 | 174.22258 | 10001 ft | 200 kts | 172° |
| 2026-05-05 02:03 | -39.26492 | 174.22468 | 10000 ft | 200 kts | 172° |
| 2026-05-05 02:03 | -39.27871 | 174.22680 | 10000 ft | 201 kts | 172° |
| 2026-05-05 02:03 | -39.29258 | 174.22894 | 10000 ft | 201 kts | 172° |
| 2026-05-05 02:04 | -39.30648 | 174.23108 | 10000 ft | 201 kts | 172° |
| 2026-05-05 02:04 | -39.32029 | 174.23321 | 10000 ft | 201 kts | 172° |
| 2026-05-05 02:04 | -39.33415 | 174.23534 | 9998 ft | 201 kts | 172° |
| 2026-05-05 02:04 | -39.34824 | 174.23740 | 10043 ft | 210 kts | 172° |
| 2026-05-05 02:05 | -39.36267 | 174.23980 | 9975 ft | 210 kts | 171° |
| 2026-05-05 02:05 | -39.37743 | 174.24202 | 9994 ft | 205 kts | 171° |
| 2026-05-05 02:05 | -39.39137 | 174.24404 | 9998 ft | 203 kts | 171° |
| 2026-05-05 02:05 | -39.40526 | 174.24621 | 10000 ft | 201 kts | 171° |
| 2026-05-05 02:06 | -39.41930 | 174.24833 | 10000 ft | 201 kts | 171° |
| 2026-05-05 02:06 | -39.43316 | 174.25051 | 10000 ft | 200 kts | 171° |
| 2026-05-05 02:06 | -39.44693 | 174.25262 | 10001 ft | 200 kts | 171° |
| 2026-05-05 02:06 | -39.46072 | 174.25485 | 10001 ft | 200 kts | 171° |
| 2026-05-05 02:07 | -39.47452 | 174.25716 | 10001 ft | 200 kts | 171° |
| 2026-05-05 02:07 | -39.48856 | 174.25942 | 10001 ft | 200 kts | 171° |
| 2026-05-05 02:07 | -39.50216 | 174.26149 | 10001 ft | 200 kts | 171° |
| 2026-05-05 02:07 | -39.51603 | 174.26375 | 10001 ft | 200 kts | 171° |
| 2026-05-05 02:08 | -39.52986 | 174.26588 | 10001 ft | 200 kts | 171° |
| 2026-05-05 02:08 | -39.54368 | 174.26811 | 10001 ft | 200 kts | 171° |
| 2026-05-05 02:08 | -39.55763 | 174.27022 | 10001 ft | 200 kts | 171° |
| 2026-05-05 02:08 | -39.57144 | 174.27235 | 10001 ft | 200 kts | 171° |
| 2026-05-05 02:09 | -39.58523 | 174.27451 | 10001 ft | 200 kts | 171° |
| 2026-05-05 02:09 | -39.59894 | 174.27667 | 10001 ft | 200 kts | 171° |
| 2026-05-05 02:09 | -39.61274 | 174.27879 | 10001 ft | 200 kts | 171° |
| 2026-05-05 02:09 | -39.62668 | 174.28097 | 10001 ft | 200 kts | 171° |
| 2026-05-05 02:10 | -39.64045 | 174.28320 | 10001 ft | 200 kts | 171° |
| 2026-05-05 02:10 | -39.65419 | 174.28547 | 10001 ft | 200 kts | 171° |
| 2026-05-05 02:10 | -39.66797 | 174.28776 | 10001 ft | 200 kts | 171° |
| 2026-05-05 02:10 | -39.68161 | 174.29002 | 10001 ft | 200 kts | 171° |
| 2026-05-05 02:11 | -39.69556 | 174.29233 | 10001 ft | 200 kts | 171° |
| 2026-05-05 02:11 | -39.70941 | 174.29460 | 10001 ft | 200 kts | 171° |
| 2026-05-05 02:11 | -39.72336 | 174.29687 | 10001 ft | 200 kts | 171° |
| 2026-05-05 02:11 | -39.73675 | 174.29905 | 10012 ft | 194 kts | 169° |
| 2026-05-05 02:12 | -39.75002 | 174.30124 | 10005 ft | 189 kts | 170° |
| 2026-05-05 02:12 | -39.77557 | 174.30559 | 10004 ft | 181 kts | 170° |
| 2026-05-05 02:12 | -39.78795 | 174.30762 | 10005 ft | 179 kts | 171° |
| 2026-05-05 02:13 | -39.80031 | 174.30965 | 10005 ft | 177 kts | 171° |
| 2026-05-05 02:13 | -39.81257 | 174.31170 | 10006 ft | 177 kts | 171° |
| 2026-05-05 02:13 | -39.82481 | 174.31377 | 10005 ft | 177 kts | 169° |
| 2026-05-05 02:13 | -39.83688 | 174.31585 | 10006 ft | 177 kts | 169° |
| 2026-05-05 02:14 | -39.84916 | 174.31797 | 10006 ft | 177 kts | 169° |
| 2026-05-05 02:14 | -39.86151 | 174.32009 | 10006 ft | 177 kts | 169° |
| 2026-05-05 02:14 | -39.87355 | 174.32214 | 10006 ft | 177 kts | 169° |
| 2026-05-05 02:14 | -39.88593 | 174.32423 | 10006 ft | 177 kts | 169° |
| 2026-05-05 02:15 | -39.89817 | 174.32628 | 10006 ft | 178 kts | 169° |
| 2026-05-05 02:15 | -39.91044 | 174.32832 | 10005 ft | 179 kts | 176° |
| 2026-05-05 02:15 | -39.92279 | 174.33037 | 10011 ft | 182 kts | 176° |
| 2026-05-05 02:15 | -39.93553 | 174.33249 | 10012 ft | 184 kts | 176° |
| 2026-05-05 02:16 | -39.94837 | 174.33460 | 10013 ft | 187 kts | 176° |
| 2026-05-05 02:16 | -39.96130 | 174.33669 | 10014 ft | 189 kts | 176° |
| 2026-05-05 02:16 | -39.97435 | 174.33875 | 10014 ft | 190 kts | 176° |
| 2026-05-05 02:16 | -39.98749 | 174.34086 | 10014 ft | 192 kts | 176° |
| 2026-05-05 02:17 | -40.00092 | 174.34313 | 10014 ft | 191 kts | 176° |
| 2026-05-05 02:17 | -40.01393 | 174.34527 | 10012 ft | 191 kts | 176° |
| 2026-05-05 02:17 | -40.02712 | 174.34742 | 10012 ft | 190 kts | 176° |
| 2026-05-05 02:17 | -40.04018 | 174.34956 | 10012 ft | 190 kts | 176° |
| 2026-05-05 02:18 | -40.05332 | 174.35171 | 10012 ft | 190 kts | 176° |
| 2026-05-05 02:18 | -40.06643 | 174.35387 | 10012 ft | 189 kts | 176° |
| 2026-05-05 02:18 | -40.07911 | 174.35595 | 10011 ft | 189 kts | 174° |
| 2026-05-05 02:18 | -40.09243 | 174.35814 | 10015 ft | 193 kts | 174° |
| 2026-05-05 02:19 | -40.10577 | 174.36036 | 10018 ft | 195 kts | 173° |
| 2026-05-05 02:19 | -40.11934 | 174.36257 | 10007 ft | 198 kts | 173° |
| 2026-05-05 02:19 | -40.13304 | 174.36475 | 10002 ft | 199 kts | 173° |
| 2026-05-05 02:19 | -40.14675 | 174.36688 | 10001 ft | 199 kts | 173° |
| 2026-05-05 02:20 | -40.16047 | 174.36911 | 10001 ft | 199 kts | 173° |
| 2026-05-05 02:20 | -40.17423 | 174.37147 | 10000 ft | 199 kts | 173° |
| 2026-05-05 02:20 | -40.18815 | 174.37380 | 9999 ft | 199 kts | 173° |
| 2026-05-05 02:20 | -40.20185 | 174.37610 | 10002 ft | 199 kts | 174° |
| 2026-05-05 02:21 | -40.21557 | 174.37839 | 10003 ft | 198 kts | 175° |
| 2026-05-05 02:21 | -40.22909 | 174.38054 | 10004 ft | 196 kts | 176° |
| 2026-05-05 02:21 | -40.24260 | 174.38277 | 10005 ft | 195 kts | 176° |
| 2026-05-05 02:21 | -40.25590 | 174.38487 | 10007 ft | 192 kts | 171° |
| 2026-05-05 02:22 | -40.26908 | 174.38684 | 10010 ft | 189 kts | 170° |
| 2026-05-05 02:22 | -40.28197 | 174.38898 | 10010 ft | 187 kts | 169° |
| 2026-05-05 02:22 | -40.29482 | 174.39115 | 10011 ft | 185 kts | 169° |
| 2026-05-05 02:22 | -40.30757 | 174.39330 | 10011 ft | 185 kts | 169° |
| 2026-05-05 02:23 | -40.32042 | 174.39547 | 10011 ft | 184 kts | 169° |
| 2026-05-05 02:23 | -40.33310 | 174.39760 | 10012 ft | 184 kts | 169° |
| 2026-05-05 02:23 | -40.34581 | 174.39975 | 10009 ft | 185 kts | 169° |
| 2026-05-05 02:23 | -40.35860 | 174.40184 | 10010 ft | 186 kts | 169° |
| 2026-05-05 02:24 | -40.37151 | 174.40392 | 10010 ft | 187 kts | 169° |
| 2026-05-05 02:24 | -40.38441 | 174.40601 | 10010 ft | 187 kts | 169° |
| 2026-05-05 02:24 | -40.39730 | 174.40809 | 10010 ft | 187 kts | 169° |
| 2026-05-05 02:24 | -40.41014 | 174.41017 | 10010 ft | 187 kts | 169° |
| 2026-05-05 02:25 | -40.42292 | 174.41225 | 10010 ft | 186 kts | 169° |
| 2026-05-05 02:25 | -40.43590 | 174.41425 | 10013 ft | 185 kts | 172° |
| 2026-05-05 02:25 | -40.44856 | 174.41615 | 10009 ft | 182 kts | 172° |
| 2026-05-05 02:25 | -40.46123 | 174.41806 | 10009 ft | 181 kts | 172° |
| 2026-05-05 02:26 | -40.47368 | 174.41995 | 10010 ft | 180 kts | 172° |
| 2026-05-05 02:26 | -40.48604 | 174.42184 | 10010 ft | 179 kts | 172° |
| 2026-05-05 02:26 | -40.49845 | 174.42375 | 10010 ft | 179 kts | 172° |
| 2026-05-05 02:26 | -40.51082 | 174.42567 | 10010 ft | 179 kts | 172° |
| 2026-05-05 02:27 | -40.52320 | 174.42759 | 10009 ft | 179 kts | 171° |
| 2026-05-05 02:27 | -40.53554 | 174.42961 | 10009 ft | 179 kts | 171° |
| 2026-05-05 02:27 | -40.54804 | 174.43168 | 10008 ft | 180 kts | 171° |
| 2026-05-05 02:27 | -40.56027 | 174.43353 | 10008 ft | 180 kts | 171° |
| 2026-05-05 02:28 | -40.57278 | 174.43524 | 10007 ft | 181 kts | 171° |
| 2026-05-05 02:28 | -40.58540 | 174.43706 | 10006 ft | 181 kts | 171° |
| 2026-05-05 02:28 | -40.59798 | 174.43890 | 10005 ft | 182 kts | 170° |
| 2026-05-05 02:28 | -40.61069 | 174.44091 | 9999 ft | 185 kts | 169° |
| 2026-05-05 02:29 | -40.62349 | 174.44300 | 9998 ft | 187 kts | 169° |
| 2026-05-05 02:29 | -40.63638 | 174.44514 | 9998 ft | 189 kts | 169° |
| 2026-05-05 02:29 | -40.64954 | 174.44733 | 9997 ft | 190 kts | 170° |
| 2026-05-05 02:29 | -40.66264 | 174.44940 | 9997 ft | 191 kts | 170° |
| 2026-05-05 02:30 | -40.67601 | 174.45165 | 9997 ft | 192 kts | 170° |
| 2026-05-05 02:30 | -40.68922 | 174.45374 | 9997 ft | 193 kts | 170° |
| 2026-05-05 02:30 | -40.70263 | 174.45599 | 9998 ft | 192 kts | 169° |
| 2026-05-05 02:30 | -40.71587 | 174.45835 | 9996 ft | 191 kts | 169° |
| 2026-05-05 02:31 | -40.72873 | 174.46073 | 9996 ft | 189 kts | 169° |
| 2026-05-05 02:31 | -40.74157 | 174.46296 | 9996 ft | 187 kts | 170° |
| 2026-05-05 02:31 | -40.75466 | 174.46525 | 9994 ft | 184 kts | 171° |
| 2026-05-05 02:31 | -40.76730 | 174.46749 | 9992 ft | 182 kts | 172° |
| 2026-05-05 02:32 | -40.77965 | 174.46969 | 9995 ft | 180 kts | 174° |
| 2026-05-05 02:32 | -40.79239 | 174.47189 | 9989 ft | 186 kts | 173° |
| 2026-05-05 02:32 | -40.80541 | 174.47409 | 9997 ft | 191 kts | 173° |
| 2026-05-05 02:32 | -40.81851 | 174.47632 | 9998 ft | 194 kts | 172° |
| 2026-05-05 02:33 | -40.83197 | 174.47876 | 9997 ft | 196 kts | 172° |
| 2026-05-05 02:33 | -40.84571 | 174.48116 | 9996 ft | 197 kts | 172° |
| 2026-05-05 02:33 | -40.85929 | 174.48362 | 9995 ft | 198 kts | 172° |
| 2026-05-05 02:33 | -40.87287 | 174.48597 | 9995 ft | 198 kts | 173° |
| 2026-05-05 02:34 | -40.88662 | 174.48846 | 9975 ft | 199 kts | 172° |
| 2026-05-05 02:34 | -40.90034 | 174.49087 | 9966 ft | 200 kts | 172° |
| 2026-05-05 02:34 | -40.91409 | 174.49332 | 9965 ft | 199 kts | 173° |
| 2026-05-05 02:34 | -40.92775 | 174.49580 | 9965 ft | 199 kts | 173° |
| 2026-05-05 02:35 | -40.94145 | 174.49819 | 9965 ft | 198 kts | 174° |
| 2026-05-05 02:35 | -40.95510 | 174.50061 | 9965 ft | 198 kts | 174° |
| 2026-05-05 02:35 | -40.96874 | 174.50302 | 9961 ft | 198 kts | 172° |
| 2026-05-05 02:35 | -40.98237 | 174.50537 | 9959 ft | 199 kts | 172° |
| 2026-05-05 02:36 | -40.99613 | 174.50786 | 9958 ft | 199 kts | 172° |
| 2026-05-05 02:36 | -41.00989 | 174.51029 | 9957 ft | 199 kts | 172° |
| 2026-05-05 02:36 | -41.02353 | 174.51276 | 9956 ft | 199 kts | 172° |
| 2026-05-05 02:36 | -41.03725 | 174.51513 | 9956 ft | 199 kts | 173° |
| 2026-05-05 02:37 | -41.05089 | 174.51762 | 9955 ft | 199 kts | 172° |
| 2026-05-05 02:37 | -41.06452 | 174.52002 | 9954 ft | 199 kts | 172° |
| 2026-05-05 02:37 | -41.07844 | 174.52247 | 9954 ft | 199 kts | 172° |
| 2026-05-05 02:37 | -41.09198 | 174.52529 | 9954 ft | 199 kts | 170° |
| 2026-05-05 02:38 | -41.10116 | 174.52736 | 9953 ft | 199 kts | 170° |
| 2026-05-05 02:38 | -41.11939 | 174.53135 | 9953 ft | 199 kts | 171° |
| 2026-05-05 02:38 | -41.13283 | 174.53426 | 9953 ft | 199 kts | 171° |
| 2026-05-05 02:38 | -41.14190 | 174.53623 | 9949 ft | 199 kts | 171° |
| 2026-05-05 02:39 | -41.15562 | 174.53920 | 9946 ft | 199 kts | 171° |
| 2026-05-05 02:39 | -41.17399 | 174.54301 | 9944 ft | 199 kts | 171° |
| 2026-05-05 02:39 | -41.18312 | 174.54497 | 9944 ft | 199 kts | 170° |
| 2026-05-05 02:39 | -41.19682 | 174.54800 | 9943 ft | 199 kts | 171° |
| 2026-05-05 02:40 | -41.21508 | 174.55198 | 9943 ft | 199 kts | 171° |
| 2026-05-05 02:40 | -41.22409 | 174.55394 | 9942 ft | 199 kts | 171° |
| 2026-05-05 02:40 | -41.23775 | 174.55692 | 9942 ft | 199 kts | 171° |
| 2026-05-05 02:40 | -41.25128 | 174.56023 | 9992 ft | 202 kts | 165° |
| 2026-05-05 02:41 | -41.26549 | 174.56395 | 9873 ft | 212 kts | 173° |
| 2026-05-05 02:41 | -41.27994 | 174.56565 | 9928 ft | 205 kts | 174° |
| 2026-05-05 02:41 | -41.29370 | 174.56888 | 9938 ft | 202 kts | 166° |
| 2026-05-05 02:41 | -41.30693 | 174.57509 | 9942 ft | 200 kts | 156° |
| 2026-05-05 02:42 | -41.31963 | 174.58266 | 9938 ft | 200 kts | 154° |
| 2026-05-05 02:42 | -41.33218 | 174.59035 | 9935 ft | 199 kts | 154° |
| 2026-05-05 02:42 | -41.34480 | 174.59794 | 9934 ft | 199 kts | 155° |
| 2026-05-05 02:42 | -41.35761 | 174.60541 | 9934 ft | 199 kts | 155° |
| 2026-05-05 02:43 | -41.37025 | 174.61274 | 9934 ft | 199 kts | 155° |
| 2026-05-05 02:43 | -41.38296 | 174.61995 | 9933 ft | 199 kts | 156° |
| 2026-05-05 02:43 | -41.39567 | 174.62726 | 9933 ft | 198 kts | 155° |
| 2026-05-05 02:43 | -41.40615 | 174.63340 | 9776 ft | 188 kts | 155° |
| 2026-05-05 02:44 | -41.41793 | 174.64032 | 9881 ft | 186 kts | 155° |
| 2026-05-05 02:44 | -41.42984 | 174.64723 | 9925 ft | 189 kts | 155° |
| 2026-05-05 02:44 | -41.44203 | 174.65430 | 9933 ft | 193 kts | 155° |
| 2026-05-05 02:44 | -41.45445 | 174.66150 | 9934 ft | 196 kts | 155° |
| 2026-05-05 02:45 | -41.46690 | 174.66872 | 9934 ft | 198 kts | 155° |
| 2026-05-05 02:45 | -41.47934 | 174.67594 | 9933 ft | 199 kts | 155° |
| 2026-05-05 02:45 | -41.49207 | 174.68448 | 9922 ft | 199 kts | 141° |
| 2026-05-05 02:45 | -41.49954 | 174.69915 | 9743 ft | 186 kts | 103° |
| 2026-05-05 02:46 | -41.49950 | 174.71558 | 9507 ft | 172 kts | 77° |
| 2026-05-05 02:46 | -41.49746 | 174.73093 | 9257 ft | 167 kts | 77° |
| 2026-05-05 02:46 | -41.49647 | 174.74632 | 9004 ft | 165 kts | 85° |
| 2026-05-05 02:46 | -41.49688 | 174.76150 | 8754 ft | 163 kts | 90° |
| 2026-05-05 02:47 | -41.49776 | 174.77651 | 8503 ft | 161 kts | 91° |
| 2026-05-05 02:47 | -41.49617 | 174.79071 | 8237 ft | 155 kts | 58° |
| 2026-05-05 02:47 | -41.48862 | 174.80022 | 8001 ft | 148 kts | 27° |
| 2026-05-05 02:47 | -41.47888 | 174.80363 | 7739 ft | 146 kts | 354° |
| 2026-05-05 02:48 | -41.46929 | 174.79998 | 7499 ft | 138 kts | 341° |
| 2026-05-05 02:48 | -41.46034 | 174.79642 | 7198 ft | 132 kts | 347° |
| 2026-05-05 02:48 | -41.45142 | 174.79493 | 6896 ft | 127 kts | 356° |
| 2026-05-05 02:48 | -41.44259 | 174.79535 | 6589 ft | 124 kts | 4° |
| 2026-05-05 02:49 | -41.43420 | 174.79686 | 6290 ft | 122 kts | 7° |
| 2026-05-05 02:49 | -41.42595 | 174.79868 | 5991 ft | 120 kts | 8° |
| 2026-05-05 02:49 | -41.41806 | 174.80022 | 5741 ft | 107 kts | 6° |
| 2026-05-05 02:49 | -41.41102 | 174.80123 | 5423 ft | 98 kts | 4° |
| 2026-05-05 02:50 | -41.40424 | 174.80188 | 5067 ft | 96 kts | 2° |
| 2026-05-05 02:50 | -41.39762 | 174.80236 | 4716 ft | 94 kts | 1° |
| 2026-05-05 02:50 | -41.39112 | 174.80278 | 4366 ft | 93 kts | 360° |
| 2026-05-05 02:50 | -41.38474 | 174.80318 | 4018 ft | 91 kts | 359° |
| 2026-05-05 02:51 | -41.37842 | 174.80359 | 3668 ft | 90 kts | 358° |
| 2026-05-05 02:51 | -41.37222 | 174.80401 | 3321 ft | 90 kts | 357° |
| 2026-05-05 02:51 | -41.36582 | 174.80445 | 2695 ft | 101 kts | 1° |
| 2026-05-05 02:51 | -41.35917 | 174.80482 | 1856 ft | 92 kts | 6° |
| 2026-05-05 02:52 | -41.35289 | 174.80478 | 1025 ft | 90 kts | 358° |
| 2026-05-05 02:52 | -41.34689 | 174.80533 | 467 ft | 80 kts | 3° |
| 2026-05-05 02:52 | -41.34186 | 174.80570 | 160 ft | 65 kts | 3° |
| 2026-05-05 02:52 | -41.33758 | 174.80616 | 82 ft | 54 kts | 6° |
| 2026-05-05 02:53 | -41.33436 | 174.80648 | 47 ft | 41 kts | 2° |
| 2026-05-05 02:53 | -41.33244 | 174.80657 | 46 ft | 13 kts | 2° |
| 2026-05-05 02:53 | -41.33229 | 174.80658 | 46 ft | 0 kts | 2° |
| 2026-05-05 02:54 | -41.33228 | 174.80658 | 46 ft | 0 kts | 2° |